Time;durP1;ratioP1;P1;durP2;ratioP2;P2;SDS_P1;SDS_P2;PMS_P1;PMS_P2;Temp;Humidity;BMP_temperature;BMP_pressure;BME280_temperature;BME280_humidity;BME280_pressure;Samples;Min_cycle;Max_cycle;Signal;HPM_P1;HPM_P2
2022/08/10 00:00:30;;;;;;;3.22;2.20;;;;;;;20.92;55.72;102565.31;4959886;28;20033;-68
2022/08/10 00:02:58;;;;;;;5.07;2.00;;;;;;;20.95;55.37;102562.63;4977100;28;20030;-68
2022/08/10 00:05:25;;;;;;;5.40;2.28;;;;;;;20.89;55.64;102557.25;4977177;28;20075;-68
2022/08/10 00:07:51;;;;;;;6.40;2.33;;;;;;;20.80;55.83;102560.88;4976980;28;20031;-68
2022/08/10 00:10:18;;;;;;;7.50;2.30;;;;;;;20.73;56.24;102557.34;4976904;28;20374;-68
2022/08/10 00:12:44;;;;;;;3.97;2.13;;;;;;;20.74;56.17;102560.91;4976888;28;20031;-68
2022/08/10 00:15:14;;;;;;;6.90;2.35;;;;;;;20.76;55.77;102556.41;4976587;28;20033;-68
2022/08/10 00:17:39;;;;;;;3.63;2.10;;;;;;;20.81;55.83;102559.06;4975887;28;20469;-68
2022/08/10 00:20:06;;;;;;;4.50;2.20;;;;;;;20.76;55.88;102559.09;4976824;28;20096;-67
2022/08/10 00:22:32;;;;;;;3.55;2.30;;;;;;;20.68;56.17;102558.22;4976842;28;20462;-68
2022/08/10 00:24:58;;;;;;;5.75;2.30;;;;;;;20.59;56.66;102553.78;4976645;28;20500;-68
2022/08/10 00:27:24;;;;;;;4.90;2.30;;;;;;;20.64;56.42;102548.41;4987642;28;20057;-68
2022/08/10 00:29:50;;;;;;;4.03;2.20;;;;;;;20.60;56.60;102550.22;4995910;28;20066;-68
2022/08/10 00:32:16;;;;;;;3.90;2.35;;;;;;;20.65;55.93;102550.22;4996033;28;20037;-68
2022/08/10 00:34:41;;;;;;;4.32;2.17;;;;;;;20.56;56.44;102545.78;4996032;28;20030;-68
2022/08/10 00:37:07;;;;;;;3.90;2.20;;;;;;;20.59;56.35;102552.91;4995819;28;20084;-68
2022/08/10 00:39:33;;;;;;;4.85;2.22;;;;;;;20.44;56.66;102541.28;4995915;28;20109;-68
2022/08/10 00:41:58;;;;;;;4.55;2.40;;;;;;;20.36;57.04;102543.09;4995776;28;20026;-68
2022/08/10 00:44:23;;;;;;;3.17;2.40;;;;;;;20.29;57.61;102544.00;4995554;28;20482;-68
2022/08/10 00:46:49;;;;;;;5.63;2.40;;;;;;;20.23;57.57;102541.34;4995707;28;20034;-68
2022/08/10 00:49:14;;;;;;;4.85;2.50;;;;;;;20.19;57.77;102534.19;4995639;28;20058;-68
2022/08/10 00:51:41;;;;;;;4.75;2.58;;;;;;;20.20;57.93;102541.34;4978108;28;20030;-68
2022/08/10 00:54:07;;;;;;;5.07;2.40;;;;;;;20.16;57.72;102534.19;4995539;28;20022;-68
2022/08/10 00:56:33;;;;;;;4.32;2.40;;;;;;;20.17;57.50;102538.66;4978176;28;20022;-68
2022/08/10 00:58:59;;;;;;;4.22;2.60;;;;;;;20.22;57.87;102532.41;4995515;28;20520;-68
2022/08/10 01:01:24;;;;;;;3.55;2.42;;;;;;;20.20;57.27;102542.22;4995534;28;20224;-68
2022/08/10 01:03:49;;;;;;;4.18;2.35;;;;;;;20.12;58.01;102538.66;4995307;28;20037;-68
2022/08/10 01:06:40;;;;;;;3.97;2.67;;;;;;;20.13;57.67;102535.13;4995526;28;20057;-67
2022/08/10 01:09:14;;;;;;;7.05;2.60;;;;;;;20.06;58.00;102537.81;4995391;28;20030;-68
2022/08/10 01:11:48;;;;;;;4.13;2.72;;;;;;;19.98;58.05;102530.66;4995054;28;20042;-68
2022/08/10 01:14:36;;;;;;;4.85;2.50;;;;;;;20.00;57.99;102528.88;4995296;28;20460;-68
2022/08/10 01:17:14;;;;;;;4.65;2.53;;;;;;;20.01;58.18;102532.44;4995134;28;20034;-68
2022/08/10 01:19:51;;;;;;;5.03;2.60;;;;;;;20.11;57.90;102527.94;4995163;28;20034;-68
2022/08/10 01:22:35;;;;;;;4.50;2.40;;;;;;;20.02;58.34;102524.38;4995375;28;20030;-68
2022/08/10 01:25:06;;;;;;;4.28;2.70;;;;;;;19.97;58.50;102525.28;4994959;28;20054;-67
2022/08/10 01:28:02;;;;;;;2.70;2.40;;;;;;;19.93;58.27;102523.50;4994373;28;20054;-68
2022/08/10 01:30:31;;;;;;;4.75;2.45;;;;;;;19.84;58.71;102526.22;4994914;28;20129;-68
2022/08/10 01:33:00;;;;;;;4.60;2.60;;;;;;;19.80;58.64;102528.00;4994774;28;20034;-68
2022/08/10 01:35:47;;;;;;;3.88;2.70;;;;;;;19.80;58.26;102525.31;4994858;28;20439;-68
2022/08/10 01:38:36;;;;;;;6.97;2.78;;;;;;;19.71;59.15;102525.31;4994753;28;20026;-68
2022/08/10 01:41:07;;;;;;;4.43;2.80;;;;;;;19.61;59.63;102529.75;4994735;28;20061;-68
2022/08/10 01:43:39;;;;;;;5.50;2.75;;;;;;;19.63;59.57;102530.66;4994719;28;20048;-67
2022/08/10 01:46:08;;;;;;;6.45;2.80;;;;;;;19.61;59.78;102531.56;4994700;28;20485;-68
2022/08/10 01:48:39;;;;;;;6.80;2.53;;;;;;;19.52;60.11;102527.03;4994620;28;20381;-67
2022/08/10 01:51:13;;;;;;;6.45;2.75;;;;;;;19.54;59.93;102527.97;4994735;28;20037;-68
2022/08/10 01:53:50;;;;;;;6.80;2.80;;;;;;;19.48;60.23;102527.94;4994754;28;20041;-68
2022/08/10 01:56:18;;;;;;;5.18;2.70;;;;;;;19.43;60.12;102519.91;4994386;28;20384;-68
2022/08/10 01:58:49;;;;;;;4.38;2.90;;;;;;;19.50;59.95;102524.38;4994339;28;20038;-68
2022/08/10 02:01:18;;;;;;;3.50;2.72;;;;;;;19.40;60.24;102513.63;4994436;28;20032;-68
2022/08/10 02:03:49;;;;;;;6.85;3.10;;;;;;;19.39;60.34;102523.47;4976741;28;20023;-68
2022/08/10 02:06:16;;;;;;;4.57;3.00;;;;;;;19.43;60.39;102535.97;4994506;28;20085;-67
2022/08/10 02:08:45;;;;;;;3.70;2.90;;;;;;;19.34;60.46;102524.34;4994119;28;20035;-68
2022/08/10 02:11:11;;;;;;;3.40;2.70;;;;;;;19.36;60.46;102525.28;4994324;28;20392;-68
2022/08/10 02:13:38;;;;;;;3.65;2.80;;;;;;;19.33;60.69;102525.25;4976391;28;20365;-67
2022/08/10 02:16:05;;;;;;;8.43;2.60;;;;;;;19.33;60.67;102522.59;4993985;28;20173;-67
2022/08/10 02:18:32;;;;;;;5.53;2.75;;;;;;;19.40;60.26;102522.59;4994183;28;20122;-67
2022/08/10 02:21:02;;;;;;;5.93;2.70;;;;;;;19.37;60.07;102524.38;4994000;28;20046;-67
2022/08/10 02:23:30;;;;;;;6.90;2.80;;;;;;;19.25;60.81;102519.88;4994222;28;20033;-68
2022/08/10 02:25:59;;;;;;;4.72;2.80;;;;;;;19.30;60.82;102520.78;4993942;28;20059;-68
2022/08/10 02:28:28;;;;;;;5.15;2.92;;;;;;;19.22;61.11;102514.50;4993950;28;20050;-68
2022/08/10 02:30:56;;;;;;;3.55;2.70;;;;;;;19.20;60.75;102514.50;4993638;28;20484;-68
2022/08/10 02:33:25;;;;;;;5.00;2.70;;;;;;;19.25;60.71;102517.19;4993893;28;20133;-67
2022/08/10 02:35:52;;;;;;;4.50;2.78;;;;;;;19.28;60.72;102522.56;4993666;28;20022;-68
2022/08/10 02:38:23;;;;;;;4.03;2.90;;;;;;;19.21;61.02;102520.75;4993746;28;20022;-67
2022/08/10 02:40:55;;;;;;;5.15;3.20;;;;;;;19.16;61.24;102520.75;4993222;28;20023;-67
2022/08/10 02:43:27;;;;;;;5.30;3.10;;;;;;;19.13;60.84;102526.09;4993427;28;20472;-68
2022/08/10 02:45:59;;;;;;;5.55;3.22;;;;;;;19.05;61.54;102524.31;4993786;28;20369;-68
2022/08/10 02:48:57;;;;;;;6.68;3.05;;;;;;;19.09;60.83;102510.91;4993689;28;20035;-68
2022/08/10 02:52:00;;;;;;;5.05;3.03;;;;;;;19.02;60.43;102518.06;4993667;28;20030;-68
2022/08/10 02:54:31;;;;;;;4.72;3.10;;;;;;;18.95;61.87;102512.66;4984219;28;20050;-67
2022/08/10 02:57:19;;;;;;;4.85;2.80;;;;;;;19.01;60.81;102513.59;4993658;28;20109;-68
2022/08/10 02:59:51;;;;;;;5.75;2.97;;;;;;;19.02;61.22;102514.50;4993605;28;20058;-68
2022/08/10 03:02:48;;;;;;;7.45;2.88;;;;;;;19.13;60.15;102514.50;4993609;28;20109;-68
2022/08/10 03:05:16;;;;;;;6.22;3.10;;;;;;;19.00;61.47;102501.06;4981473;28;20043;-69
2022/08/10 03:07:49;;;;;;;4.32;3.20;;;;;;;19.00;61.53;102502.84;4993805;28;20064;-68
2022/08/10 03:10:19;;;;;;;6.97;3.17;;;;;;;18.91;61.48;102494.81;4993527;28;20044;-68
2022/08/10 03:12:52;;;;;;;4.35;3.00;;;;;;;18.84;61.97;102490.31;4993547;28;20104;-68
2022/08/10 03:15:19;;;;;;;4.80;3.28;;;;;;;18.81;62.51;102499.25;4993438;28;20384;-67
2022/08/10 03:17:46;;;;;;;5.10;3.50;;;;;;;18.76;62.09;102495.66;4993581;28;20034;-67
2022/08/10 03:20:14;;;;;;;5.20;3.42;;;;;;;18.70;62.65;102491.16;4993472;28;20030;-68
2022/08/10 03:22:41;;;;;;;3.97;3.20;;;;;;;18.62;63.14;102494.66;4993308;28;20030;-67
2022/08/10 03:25:10;;;;;;;6.25;3.53;;;;;;;18.62;62.75;102497.34;4993262;28;20138;-68
2022/08/10 03:27:37;;;;;;;6.55;3.00;;;;;;;18.68;62.70;102495.59;4993038;28;20054;-68
2022/08/10 03:30:04;;;;;;;5.43;3.22;;;;;;;18.78;62.08;102496.56;4993269;28;20030;-68
2022/08/10 03:32:30;;;;;;;4.80;3.58;;;;;;;18.70;62.65;102496.50;4993197;28;20404;-67
2022/08/10 03:34:57;;;;;;;4.60;3.30;;;;;;;18.67;62.33;102492.91;4993133;28;20034;-67
2022/08/10 03:37:23;;;;;;;6.60;3.30;;;;;;;18.57;63.09;102491.97;4975875;28;20488;-67
2022/08/10 03:39:50;;;;;;;4.57;3.30;;;;;;;18.64;62.57;102498.25;4993098;28;20091;-67
2022/08/10 03:42:16;;;;;;;7.38;3.60;;;;;;;18.57;63.43;102491.97;4993368;28;20141;-68
2022/08/10 03:44:43;;;;;;;5.15;3.33;;;;;;;18.55;63.37;102500.91;4992987;28;20027;-67
2022/08/10 03:47:11;;;;;;;4.00;3.25;;;;;;;18.46;63.29;102496.41;4993076;28;20094;-67
2022/08/10 03:49:38;;;;;;;5.47;3.38;;;;;;;18.52;62.88;102501.78;4993043;28;20556;-67
2022/08/10 03:52:07;;;;;;;5.45;3.67;;;;;;;18.48;63.19;102502.66;4995488;28;20027;-68
2022/08/10 03:54:34;;;;;;;7.28;3.63;;;;;;;18.46;63.61;102499.09;4996752;28;20472;-67
2022/08/10 03:57:00;;;;;;;4.10;3.30;;;;;;;18.51;63.17;102502.66;4979090;28;20443;-68
2022/08/10 03:59:26;;;;;;;8.52;3.70;;;;;;;18.59;62.88;102506.28;4996733;28;20117;-67
2022/08/10 04:01:53;;;;;;;5.93;3.47;;;;;;;18.63;62.63;102508.09;4996604;28;20026;-67
2022/08/10 04:04:22;;;;;;;6.40;3.60;;;;;;;18.48;63.09;102506.22;4996608;28;20111;-67
2022/08/10 04:06:48;;;;;;;8.88;3.50;;;;;;;18.38;63.69;102506.19;4996262;28;20122;-67
2022/08/10 04:09:14;;;;;;;5.00;3.53;;;;;;;18.37;63.63;102504.38;4996563;28;20034;-68
2022/08/10 04:11:40;;;;;;;4.45;3.80;;;;;;;18.31;63.68;102504.34;4996373;28;20370;-67
2022/08/10 04:14:06;;;;;;;8.57;3.90;;;;;;;18.32;63.47;102499.00;4996022;28;20038;-67
2022/08/10 04:16:32;;;;;;;4.45;3.50;;;;;;;18.29;63.86;102504.34;4996287;28;20496;-67
2022/08/10 04:18:57;;;;;;;4.82;3.60;;;;;;;18.29;63.77;102501.69;4978670;28;20018;-67
2022/08/10 04:21:29;;;;;;;5.13;3.70;;;;;;;18.35;63.95;102507.03;4996113;28;20053;-68
2022/08/10 04:23:59;;;;;;;5.57;3.67;;;;;;;18.32;63.89;102507.03;4996281;28;20030;-67
2022/08/10 04:26:24;;;;;;;4.88;3.70;;;;;;;18.27;64.34;102508.78;4979166;28;20054;-68
2022/08/10 04:28:50;;;;;;;6.47;3.60;;;;;;;18.32;63.95;102511.47;4996044;28;20036;-67
2022/08/10 04:31:18;;;;;;;6.80;4.10;;;;;;;18.27;63.80;102512.34;4995944;28;20519;-67
2022/08/10 04:33:49;;;;;;;4.40;3.88;;;;;;;18.25;64.11;102515.94;4995871;28;20030;-67
2022/08/10 04:36:17;;;;;;;6.63;3.97;;;;;;;18.23;64.19;102513.22;4995935;28;20022;-67
2022/08/10 04:38:45;;;;;;;11.95;3.90;;;;;;;18.18;64.81;102506.06;4995912;28;20018;-67
2022/08/10 04:41:10;;;;;;;6.57;4.07;;;;;;;18.21;64.32;102515.00;4995860;28;20026;-68
2022/08/10 04:43:36;;;;;;;6.18;3.95;;;;;;;18.25;64.33;102518.59;4978323;28;20094;-67
2022/08/10 04:46:02;;;;;;;6.22;3.78;;;;;;;18.26;64.29;102518.59;4995787;28;20061;-68
2022/08/10 04:48:27;;;;;;;6.82;4.05;;;;;;;18.30;64.13;102516.84;4995840;28;20109;-67
2022/08/10 04:50:52;;;;;;;7.60;4.22;;;;;;;18.26;64.32;102509.69;4995746;28;20450;-67
2022/08/10 04:53:18;;;;;;;5.68;3.90;;;;;;;18.25;64.68;102508.78;4995697;28;20034;-67
2022/08/10 04:55:43;;;;;;;6.00;3.92;;;;;;;18.26;64.63;102507.91;4995667;28;20544;-67
2022/08/10 04:58:09;;;;;;;5.47;3.97;;;;;;;18.26;64.63;102510.56;4995662;28;20078;-67
2022/08/10 05:00:34;;;;;;;5.05;4.07;;;;;;;18.22;64.75;102502.50;4995568;28;20036;-67
2022/08/10 05:03:00;;;;;;;5.97;4.93;;;;;;;18.23;65.21;102507.88;4994701;28;20034;-67
2022/08/10 05:05:25;;;;;;;6.45;4.45;;;;;;;18.22;65.04;102510.53;4995227;28;20117;-68
2022/08/10 05:07:50;;;;;;;6.65;4.28;;;;;;;18.26;65.02;102497.19;4995201;28;20050;-67
2022/08/10 05:10:16;;;;;;;6.63;4.15;;;;;;;18.36;65.41;102506.16;4995199;28;20041;-67
2022/08/10 05:12:41;;;;;;;8.35;4.38;;;;;;;18.38;65.37;102507.06;4995259;28;20505;-67
2022/08/10 05:15:12;;;;;;;7.82;5.05;;;;;;;18.39;65.43;102507.97;4994995;28;20042;-67
2022/08/10 05:17:39;;;;;;;7.55;4.65;;;;;;;18.47;65.13;102503.53;4995163;28;20086;-67
2022/08/10 05:20:07;;;;;;;7.07;4.80;;;;;;;18.53;65.47;102504.44;4995046;28;20062;-67
2022/08/10 05:22:41;;;;;;;8.75;4.60;;;;;;;18.56;65.58;102503.56;4995230;28;20033;-67
2022/08/10 05:25:12;;;;;;;6.13;4.30;;;;;;;18.64;65.50;102499.16;4994933;28;20034;-67
2022/08/10 05:27:39;;;;;;;11.35;4.50;;;;;;;18.75;65.58;102493.84;4994719;28;20074;-68
2022/08/10 05:30:06;;;;;;;9.02;4.90;;;;;;;18.80;64.69;102507.25;4994954;28;20027;-67
2022/08/10 05:32:33;;;;;;;8.18;4.50;;;;;;;18.92;64.63;102501.94;4994843;28;20085;-68
2022/08/10 05:34:58;;;;;;;6.57;4.40;;;;;;;19.02;64.62;102517.16;4995016;28;20101;-67
2022/08/10 05:37:24;;;;;;;9.77;4.80;;;;;;;19.09;64.95;102516.28;4994822;28;20527;-67
2022/08/10 05:39:50;;;;;;;6.28;4.93;;;;;;;19.20;64.35;102513.63;4994750;28;20026;-67
2022/08/10 05:42:16;;;;;;;7.60;4.88;;;;;;;19.27;63.87;102512.72;4994696;28;20038;-68
2022/08/10 05:44:43;;;;;;;5.93;4.70;;;;;;;19.30;63.89;102520.78;4994432;28;20030;-67
2022/08/10 05:47:08;;;;;;;9.45;4.90;;;;;;;19.43;63.81;102516.31;4994307;28;20513;-67
2022/08/10 05:49:34;;;;;;;8.30;5.15;;;;;;;19.60;63.74;102513.66;4994651;28;20109;-67
2022/08/10 05:52:00;;;;;;;9.00;4.88;;;;;;;19.67;62.94;102508.31;4994545;28;20022;-67
2022/08/10 05:54:26;;;;;;;7.35;5.32;;;;;;;19.74;62.72;102507.44;4994480;28;20400;-68
2022/08/10 05:56:52;;;;;;;12.55;5.72;;;;;;;19.85;62.42;102511.88;4994448;28;20495;-68
2022/08/10 05:59:18;;;;;;;7.28;4.90;;;;;;;20.01;62.59;102516.34;4994267;28;20488;-67
2022/08/10 06:01:47;;;;;;;8.43;5.55;;;;;;;20.11;62.09;102510.03;4994456;28;20113;-67
2022/08/10 06:04:23;;;;;;;7.97;4.97;;;;;;;20.27;61.22;102522.53;4994258;28;20029;-67
2022/08/10 06:06:51;;;;;;;9.30;5.25;;;;;;;20.42;61.48;102520.69;4994203;28;20071;-67
2022/08/10 06:09:18;;;;;;;6.45;4.85;;;;;;;20.58;60.31;102521.56;4994110;28;20480;-67
2022/08/10 06:11:45;;;;;;;11.02;5.65;;;;;;;20.65;60.41;102516.19;4994269;28;20158;-68
2022/08/10 06:16:57;;;;;;;8.50;5.43;;;;;;;20.80;59.67;102517.88;4994437;28;20045;-67
2022/08/10 06:19:23;;;;;;;8.38;5.60;;;;;;;20.90;59.12;102522.34;4994178;28;20023;-67
2022/08/10 06:21:49;;;;;;;7.15;5.70;;;;;;;21.12;58.66;102517.72;4994010;28;20059;-68
2022/08/10 06:24:16;;;;;;;6.47;5.40;;;;;;;21.27;57.99;102517.59;4993937;28;20054;-68
2022/08/10 06:26:43;;;;;;;6.75;5.32;;;;;;;21.42;58.03;102518.44;4987983;28;20050;-68
2022/08/10 06:29:14;;;;;;;6.90;5.15;;;;;;;21.54;57.40;102518.34;4974586;28;20027;-67
2022/08/10 06:31:42;;;;;;;7.10;5.63;;;;;;;21.62;57.39;102515.56;4974397;28;20031;-67
2022/08/10 06:34:10;;;;;;;7.85;5.60;;;;;;;21.74;56.48;102518.16;4974466;28;20026;-67
2022/08/10 06:36:36;;;;;;;7.90;5.55;;;;;;;21.86;56.54;102520.75;4974401;28;20038;-67
2022/08/10 06:39:03;;;;;;;8.10;5.68;;;;;;;22.00;56.58;102515.22;4974596;28;20354;-67
2022/08/10 06:41:34;;;;;;;9.80;5.57;;;;;;;22.25;55.71;102521.28;4974210;28;20122;-68
2022/08/10 06:44:04;;;;;;;6.93;5.90;;;;;;;22.42;55.27;102508.50;4974261;28;20490;-68
2022/08/10 06:46:34;;;;;;;8.50;6.20;;;;;;;22.58;55.12;102516.41;4974563;28;20061;-68
2022/08/10 06:49:03;;;;;;;12.18;5.97;;;;;;;22.79;53.88;102504.47;4974322;28;20128;-68
2022/08/10 06:51:34;;;;;;;11.90;5.75;;;;;;;22.93;52.98;102515.97;4974153;28;20034;-68
2022/08/10 06:54:03;;;;;;;7.57;5.32;;;;;;;23.12;52.59;102511.19;4974188;28;20062;-68
2022/08/10 06:56:33;;;;;;;6.50;5.45;;;;;;;23.27;52.23;102521.75;4974079;28;20035;-68
2022/08/10 06:59:10;;;;;;;9.40;5.32;;;;;;;23.43;51.66;102512.50;4974050;28;20385;-68
2022/08/10 07:01:38;;;;;;;7.50;5.60;;;;;;;23.55;51.30;102518.59;4974034;28;20246;-67
2022/08/10 07:04:24;;;;;;;9.88;5.60;;;;;;;23.71;51.50;102522.88;4974227;28;20027;-68
2022/08/10 07:06:50;;;;;;;7.10;5.43;;;;;;;23.85;50.61;102525.31;4974194;28;20421;-70
2022/08/10 07:09:17;;;;;;;7.03;5.10;;;;;;;23.98;49.89;102519.69;4974041;28;20090;-68
2022/08/10 07:11:44;;;;;;;7.53;5.40;;;;;;;24.17;48.37;102528.31;4973878;28;20027;-69
2022/08/10 07:14:11;;;;;;;10.50;5.05;;;;;;;24.28;48.03;102521.81;4973766;28;20118;-68
2022/08/10 07:16:41;;;;;;;8.13;5.00;;;;;;;24.31;48.55;102525.34;4973646;28;20023;-69
2022/08/10 07:19:09;;;;;;;8.32;4.97;;;;;;;24.34;48.10;102527.09;4974004;28;20091;-66
2022/08/10 07:21:38;;;;;;;9.82;5.25;;;;;;;24.34;48.09;102529.81;4973965;28;20038;-66
2022/08/10 07:24:08;;;;;;;6.53;4.80;;;;;;;24.49;48.33;102527.69;4973943;28;20085;-66
2022/08/10 07:26:35;;;;;;;6.28;4.75;;;;;;;24.70;47.76;102529.06;4980179;28;20081;-68
2022/08/10 07:29:02;;;;;;;6.97;5.25;;;;;;;24.83;46.54;102529.69;4997013;28;20037;-71
2022/08/10 07:31:29;;;;;;;7.53;4.70;;;;;;;25.02;46.66;102538.31;4997181;28;20029;-68
2022/08/10 07:33:56;;;;;;;8.13;4.90;;;;;;;25.37;45.91;102537.50;4996840;28;20034;-69
2022/08/10 07:36:23;;;;;;;8.90;4.80;;;;;;;25.42;45.17;102531.97;4997208;28;20030;-67
2022/08/10 07:38:52;;;;;;;8.38;4.85;;;;;;;25.66;45.07;102538.63;4996430;28;20035;-70
2022/08/10 07:41:19;;;;;;;6.47;4.80;;;;;;;25.81;44.50;102529.22;4996026;28;20018;-67
2022/08/10 07:43:46;;;;;;;7.05;5.10;;;;;;;25.83;44.22;102530.97;4996132;28;20069;-70
2022/08/10 07:46:14;;;;;;;7.78;4.97;;;;;;;25.96;43.17;102532.44;4996645;28;20480;-66
2022/08/10 07:48:58;;;;;;;10.90;4.88;;;;;;;26.08;43.74;102523.09;4997069;28;20361;-67
2022/08/10 07:51:25;;;;;;;6.10;4.80;;;;;;;26.41;42.89;102528.47;4996750;28;20019;-65
2022/08/10 07:53:54;;;;;;;6.95;4.80;;;;;;;26.45;42.97;102522.94;4996625;28;20066;-64
2022/08/10 07:56:24;;;;;;;8.00;5.00;;;;;;;26.53;42.12;102525.44;4996577;28;20026;-65
2022/08/10 07:58:56;;;;;;;11.18;5.38;;;;;;;26.82;42.26;102527.28;4996585;28;20117;-67
2022/08/10 08:01:27;;;;;;;8.70;5.05;;;;;;;26.99;41.32;102534.91;4996990;28;20066;-64
2022/08/10 08:03:55;;;;;;;8.63;5.40;;;;;;;27.12;40.77;102532.72;4996324;28;20034;-67
2022/08/10 08:06:22;;;;;;;6.60;5.10;;;;;;;27.33;40.69;102533.88;4996278;28;20041;-67
2022/08/10 08:08:49;;;;;;;9.98;4.85;;;;;;;27.46;39.80;102532.53;4996296;28;20037;-68
2022/08/10 08:11:15;;;;;;;7.75;4.63;;;;;;;27.68;39.14;102521.81;4996427;28;20031;-66
2022/08/10 08:13:41;;;;;;;9.98;5.05;;;;;;;27.88;39.11;102532.00;4996199;28;20049;-66
2022/08/10 08:16:08;;;;;;;9.93;5.00;;;;;;;28.09;38.83;102522.22;4996288;28;20033;-66
2022/08/10 08:18:35;;;;;;;7.22;5.07;;;;;;;28.21;38.42;102532.66;4978408;28;20027;-63
2022/08/10 08:21:01;;;;;;;7.43;5.03;;;;;;;28.27;38.14;102537.00;4977389;28;20392;-68
2022/08/10 08:23:27;;;;;;;9.13;5.15;;;;;;;28.38;38.35;102535.66;4977903;28;20045;-67
2022/08/10 08:25:54;;;;;;;10.13;5.32;;;;;;;28.47;37.97;102534.44;4978257;28;20105;-68
2022/08/10 08:28:19;;;;;;;10.35;5.47;;;;;;;28.60;38.08;102524.84;4995628;28;20042;-68
2022/08/10 08:30:46;;;;;;;9.02;4.95;;;;;;;28.81;37.04;102522.25;4995992;28;20089;-66
2022/08/10 08:33:14;;;;;;;11.30;5.45;;;;;;;28.78;37.00;102528.72;4995780;28;20030;-68
2022/08/10 08:35:41;;;;;;;9.35;5.25;;;;;;;29.05;37.21;102520.44;4995889;28;20037;-67
2022/08/10 08:38:07;;;;;;;8.30;5.20;;;;;;;29.18;36.63;102521.72;4994386;28;20488;-68
2022/08/10 08:40:35;;;;;;;10.02;4.60;;;;;;;29.53;36.03;102522.09;4995685;28;20031;-67
2022/08/10 08:43:18;;;;;;;6.25;4.50;;;;;;;29.80;36.05;102522.75;4995857;28;20026;-68
2022/08/10 08:45:56;;;;;;;10.25;5.05;;;;;;;29.90;35.40;102529.59;4992794;28;20033;-68
2022/08/10 08:48:42;;;;;;;5.68;4.60;;;;;;;30.26;35.13;102523.50;4994364;28;20105;-68
2022/08/10 08:51:26;;;;;;;8.73;4.57;;;;;;;30.42;34.66;102527.28;4995685;28;20101;-68
2022/08/10 08:54:09;;;;;;;9.18;4.82;;;;;;;30.56;34.80;102519.34;4978075;28;20034;-68
2022/08/10 08:57:03;;;;;;;7.28;4.72;;;;;;;30.88;33.44;102526.03;4995475;28;20084;-68
2022/08/10 09:00:02;;;;;;;10.48;4.82;;;;;;;31.20;33.86;102523.56;4978059;28;20036;-68
2022/08/10 09:03:01;;;;;;;7.85;4.60;;;;;;;31.52;32.94;102522.00;4995433;28;20022;-68
2022/08/10 09:06:03;;;;;;;9.93;4.75;;;;;;;31.57;32.59;102516.31;4995570;28;20084;-68
2022/08/10 09:08:29;;;;;;;;;;;;;;;31.81;30.83;102512.28;4995867;28;20057;-68
2022/08/10 09:11:21;;;;;;;7.57;4.47;;;;;;;31.62;31.69;102503.28;4995359;28;19946;-67
2022/08/10 09:13:51;;;;;;;;;;;;;;;31.85;32.30;102510.31;4995552;28;20038;-68
2022/08/10 09:16:56;;;;;;;7.75;4.50;;;;;;;31.75;31.76;102503.53;4995173;28;19918;-68
2022/08/10 09:19:31;;;;;;;8.55;4.28;;;;;;;31.81;31.76;102495.88;4977535;28;20041;-68
2022/08/10 09:22:02;;;;;;;7.00;3.97;;;;;;;31.92;31.57;102498.97;4995228;28;20034;-68
2022/08/10 09:24:59;;;;;;;6.57;4.13;;;;;;;32.24;30.33;102492.72;4995094;28;20088;-68
2022/08/10 09:27:49;;;;;;;7.05;4.10;;;;;;;32.43;29.74;102500.84;4994926;28;20046;-68
2022/08/10 09:30:31;;;;;;;7.90;4.32;;;;;;;32.14;29.88;102484.13;4995233;28;20037;-69
2022/08/10 09:33:22;;;;;;;8.32;4.10;;;;;;;32.11;30.67;102489.75;4994650;28;20395;-67
2022/08/10 09:36:06;;;;;;;5.07;3.80;;;;;;;32.25;30.28;102487.19;4994295;28;20078;-67
2022/08/10 09:39:02;;;;;;;9.82;3.80;;;;;;;32.52;29.58;102487.53;4994826;28;20057;-72
2022/08/10 09:41:31;;;;;;;7.97;4.45;;;;;;;32.73;29.10;102482.72;4977477;28;20034;-69
2022/08/10 09:44:18;;;;;;;7.50;3.72;;;;;;;32.97;28.87;102474.94;4994914;28;20039;-69
2022/08/10 09:46:52;;;;;;;6.43;3.53;;;;;;;33.12;28.92;102476.81;4994636;28;20049;-68
2022/08/10 09:49:35;;;;;;;8.15;3.47;;;;;;;33.24;28.59;102477.06;4994197;28;20084;-68
2022/08/10 09:52:16;;;;;;;7.10;4.00;;;;;;;33.10;28.22;102475.13;4994717;28;20030;-69
2022/08/10 09:54:49;;;;;;;7.03;3.70;;;;;;;33.52;28.03;102476.31;4994884;28;20058;-69
2022/08/10 09:57:33;;;;;;;6.38;3.53;;;;;;;33.62;27.58;102472.06;4995023;28;20490;-68
2022/08/10 10:00:12;;;;;;;6.20;3.70;;;;;;;33.69;26.52;102478.03;4994658;28;20023;-68
2022/08/10 10:03:02;;;;;;;5.95;3.33;;;;;;;33.74;26.19;102473.16;4977163;28;20476;-70
2022/08/10 10:05:48;;;;;;;7.03;3.75;;;;;;;33.53;26.25;102461.63;4994740;28;20058;-67
2022/08/10 10:08:25;;;;;;;7.30;3.50;;;;;;;33.23;27.03;102447.88;4994455;28;20041;-67
2022/08/10 10:11:02;;;;;;;7.65;3.40;;;;;;;33.21;27.38;102445.25;4994327;28;20033;-68
2022/08/10 10:13:56;;;;;;;8.38;3.40;;;;;;;33.58;27.06;102452.16;4994225;28;20033;-67
2022/08/10 10:16:37;;;;;;;7.00;3.10;;;;;;;33.71;26.63;102448.69;4979759;28;20045;-68
2022/08/10 10:19:31;;;;;;;7.68;3.20;;;;;;;33.83;25.66;102450.63;4994380;28;20109;-67
2022/08/10 10:22:11;;;;;;;7.60;3.25;;;;;;;33.69;25.13;102448.75;4993982;28;20030;-66
2022/08/10 10:24:54;;;;;;;10.13;3.30;;;;;;;33.69;25.18;102436.91;4993903;28;20077;-67
2022/08/10 10:27:36;;;;;;;10.40;3.22;;;;;;;33.68;25.07;102435.16;4993611;28;20062;-67
2022/08/10 10:30:12;;;;;;;5.53;3.10;;;;;;;34.04;25.07;102435.59;4993976;28;20385;-67
2022/08/10 10:32:59;;;;;;;6.45;3.00;;;;;;;34.39;24.56;102438.84;4976195;28;20033;-69
2022/08/10 10:35:39;;;;;;;7.28;3.42;;;;;;;34.44;23.84;102424.81;4992655;28;20030;-69
2022/08/10 10:38:08;;;;;;;7.97;3.20;;;;;;;34.56;23.47;102426.81;4993805;28;20033;-68
2022/08/10 10:40:44;;;;;;;7.00;2.80;;;;;;;34.80;23.19;102428.91;4993582;28;20078;-68
2022/08/10 10:43:24;;;;;;;4.90;3.20;;;;;;;34.55;22.46;102433.25;4993639;28;20429;-69
2022/08/10 10:46:01;;;;;;;4.50;3.10;;;;;;;34.55;22.00;102414.03;4993499;28;20034;-69
2022/08/10 10:48:42;;;;;;;8.60;3.10;;;;;;;34.52;22.69;102413.34;4993811;28;20077;-67
2022/08/10 10:51:47;;;;;;;6.07;3.10;;;;;;;34.35;23.23;102407.09;4976501;28;20026;-69
2022/08/10 10:54:23;;;;;;;7.38;3.08;;;;;;;34.51;22.43;102401.50;4944335;28;20101;-67
2022/08/10 10:56:54;;;;;;;6.72;3.25;;;;;;;34.46;22.47;102394.53;4993714;28;20031;-68
2022/08/10 10:59:20;;;;;;;6.82;3.00;;;;;;;34.85;22.18;102393.75;4993531;28;20026;-69
2022/08/10 11:02:17;;;;;;;7.18;3.15;;;;;;;35.12;22.85;102394.66;4998593;28;20022;-68
2022/08/10 11:04:52;;;;;;;7.00;3.13;;;;;;;35.07;22.58;102399.56;4982665;28;20034;-68
2022/08/10 11:07:34;;;;;;;5.80;2.95;;;;;;;34.76;22.03;102397.13;5000121;28;20026;-67
2022/08/10 11:10:12;;;;;;;8.60;3.10;;;;;;;34.60;21.78;102389.94;5000080;28;20101;-67
2022/08/10 11:13:05;;;;;;;5.30;3.00;;;;;;;34.52;22.01;102383.16;4999857;28;20026;-67
2022/08/10 11:15:36;;;;;;;9.35;3.20;;;;;;;34.67;22.52;102387.63;4982330;28;20037;-68
2022/08/10 11:18:17;;;;;;;10.60;3.10;;;;;;;35.07;22.58;102384.97;4982470;28;20022;-67
2022/08/10 11:21:02;;;;;;;6.93;3.08;;;;;;;35.43;21.71;102383.41;4982403;28;20484;-68
2022/08/10 11:23:38;;;;;;;7.93;3.10;;;;;;;35.51;22.07;102376.41;4999983;28;20030;-68
2022/08/10 11:26:12;;;;;;;7.03;3.13;;;;;;;35.52;21.96;102377.28;4999749;28;20034;-69
2022/08/10 11:28:44;;;;;;;8.02;3.20;;;;;;;35.73;21.22;102373.00;4999968;28;20074;-69
2022/08/10 11:31:36;;;;;;;7.22;2.90;;;;;;;35.81;21.22;102372.47;4999842;28;20025;-68
2022/08/10 11:34:14;;;;;;;7.30;3.10;;;;;;;36.04;21.16;102370.81;4999699;28;20030;-67
2022/08/10 11:37:01;;;;;;;5.15;3.35;;;;;;;36.15;21.48;102381.00;4999853;28;20030;-68
2022/08/10 11:39:36;;;;;;;8.27;3.40;;;;;;;36.09;20.52;102374.97;4999643;28;20026;-68
2022/08/10 11:42:38;;;;;;;6.20;2.90;;;;;;;36.59;20.79;102370.38;4982299;28;20065;-68
2022/08/10 11:45:27;;;;;;;6.13;2.90;;;;;;;36.57;20.34;102364.13;4999610;28;20034;-69
2022/08/10 11:47:57;;;;;;;9.15;2.90;;;;;;;36.46;19.69;102363.16;4991314;28;20076;-68
2022/08/10 11:50:31;;;;;;;10.57;3.13;;;;;;;36.52;20.29;102357.16;4999799;28;20026;-68